Sedgewickville, Missouri
Current Conditions -  °F | °C
As of 11:23 AM on Monday 22 Dec 2014 (Local Time) from KCGI Reporting Station
Light Rain Light Rain  
Wind Chill: 42°   Ceiling: 600
Heat Index: 48°   Visibility: 3mi
Dew Point: 47°   Wind: 15mph
Humidity: 96%   Direction: 140°SE
Pressure: 29.72"   Gusts: NA
Location:  37.52°N, 89.91°W
Report Text: KCGI 221723Z 14013KT 3SM -RA BR OVC006 09/08 A2972 RMK AO2 P0005 T00890083
Loading
Personal Weather Stations






























Interactive Weather Map New forecast layout! Learn more

10-Day Weather Forecast

Advertisements
Track Severe Weather on mobile